Delanson, New York
Current Conditions -  °F | °C
As of 1:35 PM on Saturday 20 Dec 2014 (Local Time) from KNY0 Reporting Station
Overcast Overcast  
Wind Chill: 17°   Ceiling: 1900
Heat Index: 24°   Visibility: 10mi
Dew Point: 17°   Wind: 6mph
Humidity: 74%   Direction: 250°WSW
Pressure: 30.25"   Gusts: NA
Location:  42.75°N, 74.19°W
Report Text: KNY0 201835Z AUTO 25005KT 10SM OVC019 M04/M08 A3025 RMK AO2 T10431083
Loading
Personal Weather Stations






























Interactive Weather Map New forecast layout! Learn more

10-Day Weather Forecast

Advertisements
Track Severe Weather on mobile